Cesar Herrera

Recruteur - Guadalajara
10 Sept 2028
Dimanche
Processus

Personnalité

Adaptabilité (17) Ambition (5) Controverse (9) Loyauté (2) Pression (5) Professionnalisme (14) Sportivité (13) Tempérament (13)

Profil

Style d'entraînement Démocratique
Diplôme Continental Pro
Détermination 9
Gestion des joueurs 8
Motivation 6
Discipline 10
Satisfaction professionnelle
85%
Fatigue
0%
Rôle Recruteur
Salaire 55.2K p/s
Contrat 14.03.2030

Performance

Comportement Bon
Efficacité de l'entraînement
46%
Développement des joueurs
55%
Prévention des blessures
45%
Mise en place tactique
75%

Événements récents

A participé à une réunion de recrutement maintenant
A recommandé une cible de transfert maintenant
A recommandé une cible de transfert maintenant
A recommandé une cible de transfert 7j
A recommandé une cible de transfert 7j
A recommandé une cible de transfert 7j
A recommandé une cible de transfert 7j
A présenté un dossier au conseil 7j

Suivi en cours

93
Joueur Club Statut Capacité Confiance Observé Dernière observation Dernier vote
Javier Güemez Santos Laguna Perdu 121 / 113 69% 1 21.08.2028 -
Ezequiel Bullaude Santos Laguna Actif 136 / 124 65% 1 03.07.2028 Approuver
Francisco Herrera Veracruz Actif 124 / 127 65% 1 12.06.2028 Approuver
Lucas Høgsberg RC Strasbourg Actif 156 / 144 40% 2 07.06.2028 -
Daniel Banjaqui Benfica Actif 112 / 136 40% 1 07.06.2028 -
Celías Ingenthron Platense Actif 105 / 132 40% 1 07.06.2028 -
Jan Bürger Northampton Town Actif 113 / 119 40% 2 06.06.2028 -
Héctor Fort Real Sociedad Actif 149 / 148 40% 1 06.06.2028 -
Martim Cunha Porto Actif 102 / 119 40% 1 06.06.2028 -
Andrija Bulatović Chamois Niortais Actif 115 / 140 40% 1 01.06.2028 -
Duk Atlas Actif 124 / 113 65% 1 02.01.2028 Approuver
Gastón Benedetti Estudiantes Actif 115 / 121 40% 1 31.12.2027 -
Matías Galarza Talleres Actif 131 / 132 40% 1 31.12.2027 -
Carlos Romero Villarreal Actif 166 / 156 40% 1 31.12.2027 -
Charlie Gray Fleetwood Town Actif 85 / 102 40% 1 03.08.2027 -
Zane Albarus Shrewsbury Town Actif 99 / 109 40% 1 03.08.2027 -
Felipe Faúndez O'Higgins Actif 111 / 111 40% 1 03.08.2027 -
Antonio Briseño Toluca Actif 111 / 113 65% 1 26.07.2027 Approuver
Anthony Patterson Wrexham Actif 149 / 128 40% 2 19.07.2027 -
Alex Bass Peterborough United Actif 104 / 113 40% 1 19.07.2027 -
Nathan Trott Cardiff City Actif 129 / 137 40% 1 17.07.2027 -
Alex Meret Napoli Actif 154 / 161 40% 1 14.06.2027 -
Tomáš Souček West Ham United Actif 124 / 142 40% 1 30.12.2026 -
Dara O'Shea Ipswich Town Actif 142 / 134 40% 2 29.12.2026 -
Valentín Gómez Betis Actif 129 / 140 40% 2 29.12.2026 -
Oliver Skipp Leicester City Actif 144 / 136 40% 1 27.12.2026 -
Edu Expósito Espanyol Actif 148 / 147 40% 12 24.12.2026 -
Alan Lescano Argentinos Juniors Actif 124 / 125 40% 3 24.12.2026 -
Carlos Forbs Club Brugge Actif 132 / 141 40% 4 23.12.2026 -
Sebastián Córdova Pumas UNAM Actif 139 / 124 40% 2 23.12.2026 -
John McGinn Aston Villa Actif 157 / 151 40% 1 20.12.2026 -
Juninho Pumas UNAM Actif 134 / 135 40% 4 17.12.2026 -
Majid Jahanbakhsh Rah Ahan Actif 124 / 132 40% 2 17.12.2026 -
Marcelo Allende Mamelodi Sundowns Actif 123 / 129 40% 1 15.12.2026 -
Erik Lira Cruz Azul Actif 140 / 134 40% 1 15.12.2026 -
Agustín Palavecino Cruz Azul Actif 137 / 139 40% 1 12.12.2026 -
Joaquim Tigres Actif 131 / 132 40% 1 11.12.2026 -
Hidemasa Morita Hull City Actif 156 / 142 40% 1 11.12.2026 -
Andrew Robertson Tottenham Actif 151 / 158 40% 1 10.12.2026 -
Aníbal Moreno River Plate Actif 135 / 130 40% 2 07.12.2026 -
Brooke Norton-Cuffy Hull City Actif 143 / 136 40% 1 07.12.2026 Plus d'infos
Jesús Orozco Chiquete Cruz Azul Actif 133 / 129 40% 1 05.12.2026 -
Anel Ahmedhodžić Burnley Actif 145 / 135 40% 1 05.12.2026 -
Ilay Camara Anderlecht Actif 137 / 139 40% 1 04.12.2026 -
Sergi Cardona KAA Gent Actif 148 / 141 40% 8 03.12.2026 -
Emanuel Mammana Vélez Actif 122 / 139 40% 4 03.12.2026 -
Ronnie Edwards Queens Park Rangers Actif 115 / 132 40% 1 01.12.2026 -
Nacho Vidal Santos Laguna Actif 128 / 122 40% 1 01.12.2026 -
Ferland Mendy Real Madrid Actif 144 / 138 40% 5 30.11.2026 -
Luís Esteves Atlas Actif 133 / 134 40% 7 28.11.2026 -
Reda Khadra Qarabag Actif 138 / 141 40% 1 25.11.2026 -
Fidel Ambríz Monterrey Actif 130 / 136 40% 2 23.11.2026 -
Welington Southampton Actif 121 / 122 40% 2 23.11.2026 -
Leandro Paredes Boca Juniors Actif 143 / 136 40% 2 23.11.2026 -
Kenny Tete Fulham Actif 153 / 142 40% 3 21.11.2026 -
Santiago Ascacíbar Boca Juniors Actif 140 / 138 40% 2 21.11.2026 -
Juan Bisanz Huracán Actif 122 / 135 40% 2 21.11.2026 -
Rodrigo Echeverría Leon Actif 123 / 128 40% 1 21.11.2026 -
Ignacio Vázquez Platense Actif 120 / 124 40% 1 18.11.2026 -
Adonis Frías Atlas Actif 131 / 120 40% 2 17.11.2026 -
Gonzalo Montiel River Plate Actif 119 / 125 40% 1 17.11.2026 -
Will Hughes Bloemfontein Celtic Actif 134 / 122 40% 1 17.11.2026 -
Víctor Guzmán Monterrey Actif 126 / 136 40% 1 10.11.2026 -
Milan van Ewijk Coventry City Actif 131 / 138 40% 1 09.11.2026 -
Elías Gómez Vélez Actif 123 / 134 40% 1 08.11.2026 -
Toti Wolverhampton Actif 129 / 120 40% 1 08.11.2026 -
Alex Luna Instituto Actif 131 / 143 40% 1 30.10.2026 -
Manu Morlanes Mallorca Actif 125 / 125 40% 1 27.10.2026 -
Marcelino Moreno Lanús Actif 132 / 135 40% 1 20.10.2026 -
Luke McNally Bristol City Actif 122 / 122 40% 1 18.10.2026 -
Willer Ditta Cruz Azul Actif 126 / 134 40% 1 16.10.2026 -
Óscar Valentín FC Copenhagen Actif 120 / 137 40% 1 15.10.2026 -
Gastón Lodico Racing Club Actif 122 / 136 40% 1 13.10.2026 -
Rodrigo De Paul Inter Miami CF Actif 153 / 149 40% 4 12.10.2026 -
Carlos Palacios Boca Juniors Actif 130 / 128 40% 1 12.10.2026 -
Wendel Zenit Actif 152 / 152 40% 1 09.10.2026 -
Talles Magno New York City Actif 125 / 129 40% 3 08.10.2026 -
Gerardo Arteaga Monterrey Actif 122 / 124 40% 1 07.10.2026 -
Carlos Rodríguez Cruz Azul Actif 140 / 127 40% 3 05.10.2026 -
Rubén Duarte Pumas UNAM Actif 136 / 134 40% 1 05.10.2026 -
Tyrhys Dolan Espanyol Actif 133 / 134 40% 3 04.10.2026 -
Martín Ojeda Orlando City Actif 129 / 133 40% 1 29.09.2026 -
Pedrinho Shakhtar Actif 134 / 147 40% 2 26.09.2026 -
João Cancelo Spartak Moscow Actif 161 / 141 40% 3 25.09.2026 -
Ryan Gauld Vancouver Whitecaps Actif 142 / 133 40% 1 22.09.2026 -
Jesús Gallardo Toluca Actif 131 / 142 40% 1 22.09.2026 -
Paxten Aaronson Colorado Rapids Actif 126 / 141 40% 1 12.09.2026 -
Alexey Miranchuk Atlanta United FC Actif 149 / 134 40% 1 11.09.2026 -
Cristian Espinoza Nashville SC Actif 127 / 128 40% 1 10.09.2026 -
Joaquín Pereyra Minnesota United FC Actif 123 / 122 40% 1 09.09.2026 -
Patrick Schulte Columbus Crew Actif 121 / 119 40% 1 31.08.2026 -
Carlos Acevedo Santos Laguna Actif 125 / 120 40% 1 31.08.2026 -
Dmytro Riznyk Racing Genk Actif 142 / 144 40% 1 31.08.2026 -